首页
METAR-TAF:

METAR-TAF

机场 :

馬拉博機場

馬拉博, 赤道几内亚

纬度: 03-45-18N, 经度: 08-42-31E, 海拔: 23米

当前天气观测

该预报发布于55分钟前的01:00 UTC
风速6节,风向西转西南
温度 27°C
湿度 84%
气压 1011 hPa
能见度10公里或以上
少量云层高于1000英尺

METAR: FGSL 230100Z 25006KT 9999 FEW010 27/24 Q1011 NOSIG

时间: 02:55 (01:55 UTC)

预报

该预报发布于2小时和55分钟前的23:00 UTC
预报有效从23日的 00点(UTC)到 24日的 06点(UTC)
风速6节,风向西南
能见度10公里或以上
散云层高于1000英尺
少量云层高于2000英尺, 积雨云.
短暂存在
从 23日的 03点(UTC)到 23日的 08点(UTC)
雷暴

TAF: FGSL 222300Z 2300/2406 22006KT 9999 SCT010 FEW020CB TEMPO 2303/2308 TS

超过4000个机场的气象观测和天气预报(METAR&TAF报告)。

可查询的气象台以黄色和红色小点在地图上表示。

将鼠标移到小点上方,可查看气象台名称。

然后点击查看天气观测和预报。

如需切换地图:点击带黑十字的绿色按钮放大地图;点击带横线的绿色按钮缩小地图;或者点击绿色箭头查看邻近地区的地图。


METAR-TAF: